Time;durP1;ratioP1;P1;durP2;ratioP2;P2;SDS_P1;SDS_P2;PMS_P1;PMS_P2;Temp;Humidity;BMP_temperature;BMP_pressure;BME280_temperature;BME280_humidity;BME280_pressure;Samples;Min_cycle;Max_cycle;Signal;HPM_P1;HPM_P2
2024/01/23 00:00:13;;;;;;;0.40;0.40;;;;;;;4.01;89.43;98363.28;5044916;28;20044;-63
2024/01/23 00:02:38;;;;;;;6.88;2.72;;;;;;;4.02;89.12;98367.56;5044814;28;20464;-63
2024/01/23 00:05:04;;;;;;;5.03;4.03;;;;;;;4.08;88.95;98374.31;5044907;28;20034;-63
2024/01/23 00:07:29;;;;;;;0.75;0.73;;;;;;;4.12;89.06;98370.00;5044575;28;20017;-64
2024/01/23 00:09:54;;;;;;;1.17;1.00;;;;;;;4.07;88.68;98380.34;5044947;28;20077;-64
2024/01/23 00:12:20;;;;;;;0.60;0.60;;;;;;;4.09;88.77;98381.16;5044671;28;20067;-63
2024/01/23 00:14:45;;;;;;;3.75;1.45;;;;;;;4.09;88.71;98383.72;5044799;28;20113;-63
2024/01/23 00:17:11;;;;;;;0.63;0.63;;;;;;;4.09;88.32;98384.56;5044116;28;20056;-63
2024/01/23 00:19:36;;;;;;;3.70;1.85;;;;;;;4.06;88.31;98373.47;5044960;28;20025;-64
2024/01/23 00:22:02;;;;;;;2.55;2.35;;;;;;;4.06;88.17;98387.19;5027117;28;20025;-63
2024/01/23 00:24:27;;;;;;;1.30;1.23;;;;;;;4.09;88.33;98391.41;5044896;28;20033;-63
2024/01/23 00:26:52;;;;;;;15.40;0.80;;;;;;;4.08;88.21;98380.31;5026528;28;20064;-63
2024/01/23 00:29:18;;;;;;;4.18;2.63;;;;;;;4.14;88.33;98383.66;5026803;28;20021;-63
2024/01/23 00:31:43;;;;;;;3.00;2.05;;;;;;;4.20;88.42;98383.56;5048463;28;20111;-64
2024/01/23 00:34:09;;;;;;;0.70;0.70;;;;;;;4.24;88.68;98397.19;5048995;28;20087;-63
2024/01/23 00:36:34;;;;;;;9.13;2.30;;;;;;;4.22;88.78;98390.38;5030814;28;20491;-63
2024/01/23 00:38:59;;;;;;;3.85;1.75;;;;;;;4.25;88.67;98386.06;5030902;28;20083;-64
2024/01/23 00:41:25;;;;;;;0.52;0.52;;;;;;;4.21;88.64;98395.53;5048385;28;20091;-63
2024/01/23 00:43:50;;;;;;;1.73;1.45;;;;;;;4.20;88.87;98386.97;5048534;28;20031;-63
2024/01/23 00:46:15;;;;;;;12.65;3.67;;;;;;;4.15;88.63;98388.78;5048294;28;20124;-63
2024/01/23 00:48:41;;;;;;;2.50;1.30;;;;;;;4.10;89.03;98403.41;5048342;28;20499;-63
2024/01/23 00:51:06;;;;;;;1.40;0.98;;;;;;;4.05;88.67;98403.47;5048487;28;20152;-63
2024/01/23 00:53:31;;;;;;;3.05;2.80;;;;;;;4.06;89.26;98417.13;5030476;28;20432;-63
2024/01/23 00:55:58;;;;;;;3.42;1.67;;;;;;;4.01;89.19;98418.94;5047851;28;20045;-63
2024/01/23 00:58:24;;;;;;;4.82;3.08;;;;;;;4.02;89.17;98431.75;5030417;28;20029;-63
2024/01/23 01:00:49;;;;;;;11.05;1.48;;;;;;;4.00;89.50;98417.22;5048341;28;20396;-63
2024/01/23 01:03:14;;;;;;;7.35;2.67;;;;;;;4.06;89.76;98420.56;5048361;28;20022;-63
2024/01/23 01:05:41;;;;;;;1.90;1.77;;;;;;;4.07;90.02;98434.25;5048239;28;20048;-63
2024/01/23 01:08:07;;;;;;;4.13;3.72;;;;;;;4.08;90.17;98436.81;5048066;28;20031;-63
2024/01/23 01:10:32;;;;;;;4.53;3.80;;;;;;;4.12;89.79;98445.31;5048209;28;20057;-64
2024/01/23 01:12:57;;;;;;;1.02;0.65;;;;;;;4.12;89.82;98442.72;5030018;28;20029;-63
2024/01/23 01:15:23;;;;;;;6.35;1.15;;;;;;;4.14;90.11;98451.28;5047882;28;20042;-62
2024/01/23 01:17:48;;;;;;;9.88;1.35;;;;;;;4.10;89.98;98439.34;5030166;28;20104;-63
2024/01/23 01:20:14;;;;;;;2.05;1.63;;;;;;;4.17;90.07;98451.22;5047965;28;20057;-62
2024/01/23 01:22:39;;;;;;;6.50;1.45;;;;;;;4.12;89.73;98444.47;5047747;28;20021;-63
2024/01/23 01:25:05;;;;;;;13.55;3.80;;;;;;;4.17;89.53;98440.13;5047873;28;20035;-63
2024/01/23 01:27:30;;;;;;;2.85;1.55;;;;;;;4.19;89.92;98434.09;5047648;28;20018;-63
2024/01/23 01:29:55;;;;;;;19.38;2.10;;;;;;;4.16;89.48;98452.13;5047685;28;20359;-63
2024/01/23 01:32:21;;;;;;;6.03;2.47;;;;;;;4.13;89.21;98441.03;5047725;28;20025;-63
2024/01/23 01:34:46;;;;;;;16.15;1.75;;;;;;;4.17;89.48;98458.94;5047726;28;20024;-63
2024/01/23 01:37:12;;;;;;;0.95;0.93;;;;;;;4.18;89.40;98468.34;5029518;28;20018;-63
2024/01/23 01:39:37;;;;;;;6.10;3.10;;;;;;;4.24;89.39;98471.69;5047401;28;20035;-63
2024/01/23 01:42:03;;;;;;;3.40;3.15;;;;;;;4.24;89.06;98471.69;5028628;28;20033;-62
2024/01/23 01:44:31;;;;;;;3.35;0.93;;;;;;;4.29;89.31;98459.63;5047792;28;20029;-62
2024/01/23 01:46:57;;;;;;;11.00;3.47;;;;;;;4.17;89.07;98440.13;5047375;28;20021;-63
2024/01/23 01:49:22;;;;;;;1.67;1.58;;;;;;;4.26;88.72;98455.41;5029393;28;20033;-64
2024/01/23 01:51:48;;;;;;;9.63;3.35;;;;;;;4.30;88.40;98445.91;5047428;28;20021;-63
2024/01/23 01:54:15;;;;;;;6.25;3.05;;;;;;;4.29;88.58;98437.38;5047017;28;20021;-62
2024/01/23 01:56:40;;;;;;;7.78;2.05;;;;;;;4.39;88.62;98453.50;5046993;28;20081;-63
2024/01/23 01:59:07;;;;;;;3.15;2.95;;;;;;;4.33;88.68;98456.16;5029358;28;20052;-63
2024/01/23 02:01:33;;;;;;;15.70;4.53;;;;;;;4.36;88.60;98453.53;5029171;28;20026;-62
2024/01/23 02:03:59;;;;;;;11.80;2.92;;;;;;;4.41;88.84;98459.47;5047285;28;20032;-63
2024/01/23 02:06:24;;;;;;;4.00;2.65;;;;;;;4.38;88.92;98454.38;5047212;28;20025;-63
2024/01/23 02:08:50;;;;;;;1.02;0.90;;;;;;;4.34;88.57;98458.69;5046998;28;20037;-62
2024/01/23 02:11:16;;;;;;;5.75;1.80;;;;;;;4.39;88.26;98468.06;5046789;28;20024;-62
2024/01/23 02:13:42;;;;;;;10.35;1.40;;;;;;;4.35;88.53;98464.69;5046738;28;20108;-62
2024/01/23 02:16:08;;;;;;;16.23;1.98;;;;;;;4.39;88.58;98461.22;5046695;28;20068;-62
2024/01/23 02:18:33;;;;;;;6.72;1.75;;;;;;;4.40;88.36;98451.78;5028854;28;20536;-62
2024/01/23 02:20:59;;;;;;;1.23;1.20;;;;;;;4.35;88.17;98459.56;5046617;28;20021;-63
2024/01/23 02:23:28;;;;;;;2.85;1.15;;;;;;;4.39;88.15;98473.22;5046938;28;20017;-63
2024/01/23 02:25:54;;;;;;;1.25;1.25;;;;;;;4.34;88.41;98475.84;5046869;28;20021;-63
2024/01/23 02:28:20;;;;;;;3.25;1.95;;;;;;;4.36;87.87;98486.09;5046407;28;20052;-64
2024/01/23 02:30:45;;;;;;;9.05;3.40;;;;;;;4.31;88.06;98466.44;5046531;28;20071;-64
2024/01/23 02:33:10;;;;;;;1.85;1.52;;;;;;;4.32;87.98;98463.03;5046580;28;20026;-65
2024/01/23 02:35:37;;;;;;;11.63;0.95;;;;;;;4.31;87.77;98479.28;5046393;28;20085;-64
2024/01/23 02:38:03;;;;;;;6.90;4.85;;;;;;;4.24;87.33;98471.69;5046370;28;20019;-64
2024/01/23 02:40:28;;;;;;;30.35;4.70;;;;;;;4.28;87.75;98473.38;5046386;28;20561;-64
2024/01/23 02:42:54;;;;;;;10.38;2.38;;;;;;;4.26;87.63;98465.69;5046205;28;20092;-64
2024/01/23 02:45:20;;;;;;;1.00;1.00;;;;;;;4.27;87.90;98469.09;5046311;28;20045;-64
2024/01/23 02:47:45;;;;;;;20.77;4.18;;;;;;;4.24;87.94;98469.13;5046148;28;20021;-64
2024/01/23 02:50:10;;;;;;;1.58;1.23;;;;;;;4.18;87.65;98467.50;5046061;28;20021;-64
2024/01/23 02:52:36;;;;;;;2.15;1.95;;;;;;;4.22;87.92;98472.56;5046119;28;20048;-64
2024/01/23 02:55:01;;;;;;;0.52;0.52;;;;;;;4.19;87.98;98474.31;5045876;28;20045;-64
2024/01/23 02:57:27;;;;;;;1.17;1.13;;;;;;;4.12;87.86;98458.16;5045749;28;20108;-64
2024/01/23 02:59:53;;;;;;;3.83;1.67;;;;;;;4.17;88.05;98484.63;5045632;28;20048;-65
2024/01/23 03:02:19;;;;;;;5.75;2.55;;;;;;;4.16;87.95;98477.78;5045945;28;20025;-63
2024/01/23 03:04:44;;;;;;;1.08;1.02;;;;;;;4.20;88.22;98476.03;5046109;28;20444;-64
2024/01/23 03:07:09;;;;;;;0.75;0.75;;;;;;;4.21;88.11;98485.44;5045691;28;20084;-64
2024/01/23 03:09:35;;;;;;;0.70;0.70;;;;;;;4.24;88.18;98493.09;5027559;28;20075;-64
2024/01/23 03:12:03;;;;;;;2.25;1.63;;;;;;;4.25;88.04;98494.78;5045435;28;20034;-64
2024/01/23 03:14:29;;;;;;;1.63;0.93;;;;;;;4.19;87.72;98502.56;5045714;28;20044;-65
2024/01/23 03:16:54;;;;;;;0.90;0.63;;;;;;;4.21;88.13;98505.97;5045365;28;20017;-64
2024/01/23 03:19:19;;;;;;;16.00;3.75;;;;;;;4.22;87.62;98507.69;5045574;28;20022;-64
2024/01/23 03:21:45;;;;;;;2.15;1.30;;;;;;;4.22;87.86;98513.69;5045594;28;20075;-64
2024/01/23 03:24:10;;;;;;;27.55;2.15;;;;;;;4.16;87.66;98498.34;5045410;28;20021;-64
2024/01/23 03:26:35;;;;;;;0.88;0.88;;;;;;;4.11;87.94;98486.41;5045307;28;20071;-65
2024/01/23 03:29:02;;;;;;;13.30;2.22;;;;;;;4.14;87.95;98488.97;5045419;28;20385;-64
2024/01/23 03:31:27;;;;;;;1.85;1.20;;;;;;;4.10;88.04;98480.44;5045696;28;20089;-65
2024/01/23 03:33:52;;;;;;;0.50;0.50;;;;;;;4.10;88.03;98485.59;5045290;28;20032;-65
2024/01/23 03:36:18;;;;;;;3.35;3.05;;;;;;;4.13;87.69;98490.69;5045438;28;20036;-65
2024/01/23 03:38:43;;;;;;;3.45;2.33;;;;;;;4.13;87.67;98482.13;5045380;28;20057;-65
2024/01/23 03:41:08;;;;;;;5.35;1.38;;;;;;;4.15;87.96;98494.09;5027247;28;20021;-65
2024/01/23 03:43:34;;;;;;;2.22;1.05;;;;;;;4.16;88.24;98492.34;5045261;28;20040;-66
2024/01/23 03:45:59;;;;;;;1.45;1.35;;;;;;;4.13;88.21;98489.81;5045133;28;20520;-66
2024/01/23 03:48:25;;;;;;;0.75;0.75;;;;;;;4.11;88.42;98492.41;5045139;28;20068;-65
2024/01/23 03:50:50;;;;;;;5.35;2.17;;;;;;;4.06;87.92;98489.03;5045553;28;20043;-65
2024/01/23 03:53:15;;;;;;;3.40;2.10;;;;;;;4.14;88.70;98497.50;5045137;28;20025;-65
2024/01/23 03:55:41;;;;;;;1.48;1.38;;;;;;;4.15;88.56;98496.66;5026912;28;20473;-65
2024/01/23 03:58:06;;;;;;;20.77;2.67;;;;;;;4.12;88.49;98509.50;5044572;28;20307;-65
2024/01/23 04:00:31;;;;;;;9.27;4.07;;;;;;;4.07;88.58;98516.44;5045035;28;20049;-65
2024/01/23 04:02:57;;;;;;;8.63;1.20;;;;;;;4.14;88.73;98519.78;5044929;28;20032;-65
2024/01/23 04:05:22;;;;;;;2.22;1.20;;;;;;;4.11;88.99;98518.09;5026936;28;20018;-65
2024/01/23 04:07:48;;;;;;;7.35;1.58;;;;;;;4.14;88.92;98523.19;5044949;28;20029;-66
2024/01/23 04:10:14;;;;;;;9.48;1.85;;;;;;;4.02;88.51;98507.94;5027220;28;20029;-65
2024/01/23 04:12:43;;;;;;;3.10;2.13;;;;;;;4.11;88.67;98527.50;5044698;28;20064;-65
2024/01/23 04:15:09;;;;;;;8.98;4.38;;;;;;;4.12;88.49;98526.66;5027113;28;20047;-65
2024/01/23 04:17:34;;;;;;;9.60;3.33;;;;;;;4.13;88.60;98525.78;5026696;28;20049;-65
2024/01/23 04:19:59;;;;;;;3.35;1.48;;;;;;;4.11;88.40;98533.50;5044897;28;20147;-65
2024/01/23 04:22:25;;;;;;;6.90;3.00;;;;;;;4.11;88.24;98527.50;5044792;28;20029;-64
2024/01/23 04:24:50;;;;;;;17.75;2.72;;;;;;;4.11;88.46;98520.66;5044984;28;20369;-64
2024/01/23 04:27:16;;;;;;;3.40;0.70;;;;;;;4.12;88.12;98535.19;5044440;28;20052;-64
2024/01/23 04:29:41;;;;;;;8.80;2.88;;;;;;;4.11;88.49;98541.22;5044716;28;20030;-64
2024/01/23 04:32:07;;;;;;;1.70;1.27;;;;;;;4.06;88.39;98530.13;5044669;28;20063;-64
2024/01/23 04:34:32;;;;;;;0.63;0.63;;;;;;;4.13;88.57;98543.75;5044657;28;20037;-63
2024/01/23 04:36:57;;;;;;;3.92;2.50;;;;;;;4.13;88.67;98542.03;5026631;28;20501;-64
2024/01/23 04:39:23;;;;;;;0.60;0.60;;;;;;;4.13;88.69;98541.19;5044772;28;20035;-63
2024/01/23 04:41:48;;;;;;;6.28;3.22;;;;;;;4.13;88.94;98525.78;5026653;28;20029;-64
2024/01/23 04:44:13;;;;;;;1.63;0.77;;;;;;;4.07;88.30;98548.09;5044277;28;20279;-63
2024/01/23 04:46:39;;;;;;;0.93;0.93;;;;;;;4.09;88.40;98545.50;5044641;28;20049;-64
2024/01/23 04:49:04;;;;;;;1.85;0.88;;;;;;;4.08;88.46;98549.81;5044562;28;20036;-63
2024/01/23 04:51:29;;;;;;;3.28;2.28;;;;;;;4.12;88.73;98557.47;5044524;28;20026;-63
2024/01/23 04:53:56;;;;;;;2.42;2.33;;;;;;;4.11;88.84;98551.47;5026949;28;20399;-63
2024/01/23 04:56:21;;;;;;;0.70;0.70;;;;;;;4.07;88.33;98552.41;5044054;28;20100;-63
2024/01/23 04:58:47;;;;;;;2.58;1.95;;;;;;;4.04;88.30;98553.25;5044441;28;20033;-63
2024/01/23 05:01:13;;;;;;;0.50;0.50;;;;;;;4.09;88.56;98551.50;5026445;28;20502;-63
2024/01/23 05:03:38;;;;;;;18.02;2.05;;;;;;;4.10;88.35;98552.34;5026408;28;20029;-62
2024/01/23 05:06:04;;;;;;;0.43;0.43;;;;;;;4.11;88.76;98568.59;5044377;28;20029;-65
2024/01/23 05:08:30;;;;;;;8.98;1.40;;;;;;;4.05;88.50;98574.66;5044158;28;20022;-64
2024/01/23 05:10:56;;;;;;;0.57;0.57;;;;;;;4.05;88.68;98577.22;5044290;28;20029;-63
2024/01/23 05:13:21;;;;;;;3.92;3.60;;;;;;;4.11;88.70;98586.56;5044170;28;20052;-63
2024/01/23 05:15:47;;;;;;;3.28;2.40;;;;;;;3.97;88.36;98573.03;5044462;28;20037;-64
2024/01/23 05:18:12;;;;;;;4.22;2.90;;;;;;;4.09;88.41;98586.59;5046648;28;20075;-64
2024/01/23 05:20:38;;;;;;;0.57;0.57;;;;;;;4.13;88.56;98602.81;5030237;28;20022;-64
2024/01/23 05:23:04;;;;;;;1.75;1.20;;;;;;;4.08;88.46;98603.75;5047881;28;20022;-64
2024/01/23 05:25:29;;;;;;;2.85;2.00;;;;;;;4.16;88.76;98621.63;5047998;28;20021;-64
2024/01/23 05:27:55;;;;;;;12.00;2.38;;;;;;;4.19;88.93;98631.88;5047748;28;20112;-63
2024/01/23 05:30:21;;;;;;;1.30;1.25;;;;;;;4.18;88.83;98635.31;5047545;28;20025;-64
2024/01/23 05:32:46;;;;;;;4.18;1.23;;;;;;;4.12;88.63;98637.94;5047790;28;20025;-64
2024/01/23 05:35:12;;;;;;;13.82;7.00;;;;;;;4.18;88.90;98658.44;5047704;28;20021;-63
2024/01/23 05:37:37;;;;;;;1.42;1.13;;;;;;;4.19;88.60;98665.25;5047094;28;20037;-64
2024/01/23 05:40:04;;;;;;;13.32;4.45;;;;;;;4.21;88.87;98668.69;5046829;28;20025;-63
2024/01/23 05:42:29;;;;;;;9.70;0.95;;;;;;;4.14;88.79;98661.88;5046029;28;20021;-64
2024/01/23 05:44:56;;;;;;;1.08;1.00;;;;;;;4.17;88.63;98664.41;5047676;28;20079;-64
2024/01/23 05:47:21;;;;;;;6.38;2.28;;;;;;;4.17;88.94;98659.28;5047896;28;20030;-64
2024/01/23 05:49:46;;;;;;;3.85;2.13;;;;;;;4.18;88.70;98668.72;5047668;28;20482;-64
2024/01/23 05:52:12;;;;;;;0.73;0.73;;;;;;;4.19;88.89;98649.84;5047469;28;20042;-64
2024/01/23 05:54:41;;;;;;;0.82;0.82;;;;;;;4.20;88.96;98656.69;5047260;28;20045;-63
2024/01/23 05:57:06;;;;;;;0.40;0.40;;;;;;;4.06;89.08;98623.44;5046911;28;20025;-65
2024/01/23 05:59:31;;;;;;;1.08;1.08;;;;;;;4.22;89.11;98660.09;5047372;28;20052;-64
2024/01/23 06:01:57;;;;;;;7.80;1.85;;;;;;;4.22;88.82;98642.09;5029485;28;20052;-63
2024/01/23 06:04:22;;;;;;;3.10;1.10;;;;;;;4.17;88.83;98646.44;5047196;28;20017;-64
2024/01/23 06:06:48;;;;;;;2.63;2.13;;;;;;;4.20;88.78;98641.25;5047262;28;20021;-63
2024/01/23 06:09:13;;;;;;;3.78;1.10;;;;;;;4.21;89.07;98644.69;5046688;28;20067;-65
2024/01/23 06:11:39;;;;;;;0.90;0.90;;;;;;;4.23;89.03;98655.81;5046716;28;20025;-65
2024/01/23 06:14:04;;;;;;;11.00;2.78;;;;;;;4.25;89.10;98642.94;5047294;28;20089;-63
2024/01/23 06:16:30;;;;;;;2.90;0.65;;;;;;;4.24;89.31;98641.22;5046938;28;20025;-64
2024/01/23 06:18:55;;;;;;;3.13;1.50;;;;;;;4.26;89.45;98629.22;5046768;28;20025;-64
2024/01/23 06:21:21;;;;;;;1.42;0.68;;;;;;;4.26;89.65;98642.06;5046914;28;20063;-64
2024/01/23 06:23:46;;;;;;;0.50;0.50;;;;;;;4.28;89.37;98658.34;5046759;28;20033;-65
2024/01/23 06:26:11;;;;;;;13.35;2.75;;;;;;;4.26;89.61;98655.78;5046386;28;20026;-63
2024/01/23 06:28:37;;;;;;;0.98;0.98;;;;;;;4.35;89.85;98677.94;5052294;23;20056;-64
2024/01/23 06:31:02;;;;;;;6.75;2.92;;;;;;;4.32;89.19;98685.69;5046596;28;20071;-64
2024/01/23 06:33:28;;;;;;;19.02;1.35;;;;;;;4.29;89.63;98678.00;5046494;28;20028;-63
2024/01/23 06:35:53;;;;;;;1.90;1.05;;;;;;;4.34;89.58;98689.09;5028830;28;20032;-63
2024/01/23 06:38:20;;;;;;;12.00;3.53;;;;;;;4.27;89.96;98688.28;5028049;28;20029;-64
2024/01/23 06:40:45;;;;;;;26.85;3.05;;;;;;;4.34;89.94;98683.94;5028847;28;20017;-64
2024/01/23 06:43:10;;;;;;;6.55;2.38;;;;;;;4.33;90.14;98695.06;5028537;28;20021;-64
2024/01/23 06:45:36;;;;;;;1.35;1.25;;;;;;;4.32;89.77;98695.94;5046459;28;20025;-64
2024/01/23 06:48:02;;;;;;;8.60;0.95;;;;;;;4.34;90.09;98686.53;5046302;28;20025;-63
2024/01/23 06:50:29;;;;;;;7.80;1.42;;;;;;;4.31;90.34;98686.56;5046371;28;20033;-64
2024/01/23 06:52:54;;;;;;;0.40;0.40;;;;;;;4.27;90.22;98703.72;5045728;28;20032;-63
2024/01/23 06:55:20;;;;;;;11.43;4.28;;;;;;;4.30;90.16;98703.69;5028022;28;20025;-63
2024/01/23 06:57:45;;;;;;;1.25;0.80;;;;;;;4.31;90.32;98714.81;5045684;28;20452;-63
2024/01/23 07:00:11;;;;;;;11.55;2.03;;;;;;;4.22;90.33;98715.75;5046311;28;20017;-63
2024/01/23 07:02:37;;;;;;;6.22;1.25;;;;;;;4.25;90.53;98700.28;5046198;28;20025;-62
2024/01/23 07:05:03;;;;;;;2.20;0.85;;;;;;;4.21;90.45;98689.22;5046314;28;20029;-62
2024/01/23 07:07:28;;;;;;;0.68;0.68;;;;;;;4.21;90.88;98691.78;5046063;28;20035;-62
2024/01/23 07:09:53;;;;;;;0.40;0.40;;;;;;;4.25;90.96;98689.19;5045995;28;20209;-63
2024/01/23 07:12:19;;;;;;;8.88;2.15;;;;;;;4.27;91.27;98688.28;5045893;28;20025;-63
2024/01/23 07:14:44;;;;;;;0.80;0.80;;;;;;;4.26;91.45;98684.03;5046153;28;20037;-63
2024/01/23 07:17:10;;;;;;;1.20;1.17;;;;;;;4.34;91.44;98710.47;5045842;28;20032;-63
2024/01/23 07:19:35;;;;;;;5.47;1.60;;;;;;;4.37;91.43;98714.75;5046133;28;20021;-64
2024/01/23 07:22:01;;;;;;;0.75;0.75;;;;;;;4.37;91.45;98725.03;5045900;28;20391;-63
2024/01/23 07:24:26;;;;;;;0.50;0.50;;;;;;;4.45;91.54;98750.66;5045931;28;20028;-64
2024/01/23 07:26:52;;;;;;;6.60;1.85;;;;;;;4.43;91.69;98757.50;5045662;28;20053;-63
2024/01/23 07:29:17;;;;;;;15.30;1.50;;;;;;;4.53;91.69;98777.13;5045572;28;20477;-63
2024/01/23 07:31:42;;;;;;;18.13;3.58;;;;;;;4.51;91.61;98784.00;5045783;28;20032;-63
2024/01/23 07:34:09;;;;;;;2.15;1.95;;;;;;;4.55;91.62;98795.09;5027878;28;20036;-63
2024/01/23 07:36:35;;;;;;;1.45;1.35;;;;;;;4.53;91.66;98810.53;5045504;28;20026;-63
2024/01/23 07:39:00;;;;;;;8.98;2.05;;;;;;;4.53;91.61;98825.97;5027536;28;20056;-63
2024/01/23 07:41:26;;;;;;;4.47;2.58;;;;;;;4.53;91.61;98833.66;5027480;28;20026;-63
2024/01/23 07:43:51;;;;;;;7.40;1.90;;;;;;;4.58;91.65;98838.75;5045403;28;20048;-63
2024/01/23 07:46:17;;;;;;;16.17;1.48;;;;;;;4.61;92.15;98845.59;5027746;28;20031;-63
2024/01/23 07:48:43;;;;;;;5.10;1.63;;;;;;;4.56;91.89;98855.91;5045185;28;20032;-63
2024/01/23 07:51:08;;;;;;;5.80;2.72;;;;;;;4.58;91.94;98873.00;5045739;28;20025;-63
2024/01/23 07:53:34;;;;;;;15.55;2.80;;;;;;;4.58;92.00;98872.19;5045418;28;20064;-63
2024/01/23 07:56:00;;;;;;;14.43;2.53;;;;;;;4.50;91.88;98868.81;5045377;28;20370;-63
2024/01/23 07:58:25;;;;;;;8.07;2.55;;;;;;;4.52;91.79;98867.94;5045062;28;20040;-62
2024/01/23 08:00:51;;;;;;;6.75;1.00;;;;;;;4.43;91.57;98875.72;5045325;28;20049;-63
2024/01/23 08:03:17;;;;;;;1.48;1.15;;;;;;;4.49;91.78;98883.38;5045175;28;20075;-64
2024/01/23 08:05:43;;;;;;;11.43;4.10;;;;;;;4.45;92.08;98891.97;5045210;28;20029;-64
2024/01/23 08:08:08;;;;;;;2.35;1.65;;;;;;;4.43;91.87;98897.13;5027456;28;20024;-62
2024/01/23 08:10:34;;;;;;;0.68;0.60;;;;;;;4.29;91.75;98878.41;5045257;28;20065;-63
2024/01/23 08:13:00;;;;;;;1.67;0.88;;;;;;;4.37;92.00;98896.31;5045183;28;20055;-63
2024/01/23 08:15:25;;;;;;;4.90;1.73;;;;;;;4.39;91.59;98900.59;5045370;28;20079;-64
2024/01/23 08:17:50;;;;;;;6.57;0.88;;;;;;;4.45;92.23;98899.69;5027083;28;20025;-62
2024/01/23 08:20:26;;;;;;;0.70;0.70;;;;;;;4.45;92.04;98918.53;5056936;23;20040;-66
2024/01/23 08:22:52;;;;;;;3.30;2.95;;;;;;;4.53;92.07;98915.06;5023027;28;20044;-68
2024/01/23 08:25:17;;;;;;;2.40;2.25;;;;;;;4.66;92.24;98934.66;5100715;22;20115;-66
2024/01/23 08:27:42;;;;;;;5.93;5.15;;;;;;;4.79;91.59;98939.69;5105013;28;20028;-66
2024/01/23 08:30:08;;;;;;;1.00;0.57;;;;;;;4.92;91.46;98918.13;5103912;28;20016;-66
2024/01/23 08:32:34;;;;;;;7.95;2.88;;;;;;;5.19;91.26;98941.91;5105261;28;20031;-66
2024/01/23 08:34:59;;;;;;;0.88;0.88;;;;;;;5.28;90.11;98929.81;5105178;28;20020;-66
2024/01/23 08:37:25;;;;;;;1.33;0.90;;;;;;;5.31;89.28;98922.06;5105148;28;20012;-67
2024/01/23 08:39:50;;;;;;;2.47;1.50;;;;;;;5.36;88.44;98930.59;5105153;28;20024;-66
2024/01/23 08:42:16;;;;;;;1.02;1.02;;;;;;;5.39;88.35;98942.56;5105020;28;20034;-66
2024/01/23 08:44:46;;;;;;;0.70;0.70;;;;;;;5.64;88.15;98963.72;5105121;28;20040;-66
2024/01/23 08:47:11;;;;;;;2.65;1.58;;;;;;;5.73;87.84;98954.19;5104976;28;20028;-66
2024/01/23 08:49:37;;;;;;;0.60;0.60;;;;;;;5.83;86.93;98958.38;5103934;28;20091;-66
2024/01/23 08:52:02;;;;;;;20.17;1.55;;;;;;;5.94;86.14;98976.28;5107473;28;20035;-66
2024/01/23 08:54:29;;;;;;;1.95;0.85;;;;;;;6.07;85.77;98980.41;5109226;28;20110;-67
2024/01/23 08:56:56;;;;;;;0.40;0.40;;;;;;;6.19;84.25;98983.72;5101118;23;20059;-62
2024/01/23 08:59:21;;;;;;;3.22;1.35;;;;;;;6.34;84.06;98995.53;5086590;23;20059;-65
2024/01/23 09:01:47;;;;;;;5.40;1.02;;;;;;;6.51;83.93;98989.28;5108432;28;20016;-63
2024/01/23 09:04:12;;;;;;;10.20;1.60;;;;;;;6.67;83.41;99003.66;5108470;28;20087;-63
2024/01/23 09:06:38;;;;;;;6.45;2.97;;;;;;;6.90;82.60;98991.28;5108247;28;20353;-63
2024/01/23 09:09:03;;;;;;;7.85;1.63;;;;;;;6.84;82.45;98969.00;5116004;22;20472;-62
2024/01/23 09:11:28;;;;;;;2.30;0.95;;;;;;;7.25;82.36;99005.28;5110841;22;20031;-65
2024/01/23 09:13:54;;;;;;;2.67;1.10;;;;;;;7.32;81.15;99003.47;5089873;28;20020;-63
2024/01/23 09:16:19;;;;;;;6.45;1.05;;;;;;;7.35;79.45;99018.06;5118059;22;20053;-63
2024/01/23 09:18:48;;;;;;;2.25;2.05;;;;;;;7.39;78.64;99010.25;5128808;28;20055;-63
2024/01/23 09:21:13;;;;;;;35.08;2.80;;;;;;;7.21;78.55;99001.09;5101492;23;20040;-64
2024/01/23 09:23:38;;;;;;;4.68;0.90;;;;;;;7.21;78.17;99021.72;5088252;28;20468;-64
2024/01/23 09:26:04;;;;;;;3.42;0.95;;;;;;;7.41;78.59;99030.88;5097841;23;20044;-63
2024/01/23 09:28:29;;;;;;;1.15;0.93;;;;;;;7.60;76.62;99013.31;5099758;23;20040;-67
2024/01/23 09:30:55;;;;;;;3.80;2.47;;;;;;;7.74;77.21;99038.03;5105767;28;20024;-66
2024/01/23 09:33:20;;;;;;;1.95;1.40;;;;;;;7.99;76.42;99058.22;5107857;28;20079;-66
2024/01/23 09:35:46;;;;;;;2.53;1.73;;;;;;;8.12;75.12;99061.41;5089934;28;20027;-66
2024/01/23 09:38:12;;;;;;;33.92;2.22;;;;;;;8.52;73.24;99090.78;5107947;28;20459;-66
2024/01/23 09:40:37;;;;;;;1.73;1.63;;;;;;;8.69;72.13;99054.22;5108118;28;20028;-66
2024/01/23 09:43:03;;;;;;;2.78;1.20;;;;;;;8.60;70.93;99085.47;5108025;28;20027;-65
2024/01/23 09:45:29;;;;;;;2.38;2.08;;;;;;;8.54;71.58;99101.94;5108128;28;20031;-66
2024/01/23 09:47:55;;;;;;;10.10;1.58;;;;;;;8.36;71.40;99103.16;5107663;28;20016;-65
2024/01/23 09:50:26;;;;;;;4.10;1.55;;;;;;;8.32;71.87;99117.91;5107760;28;20024;-66
2024/01/23 09:52:51;;;;;;;7.53;2.17;;;;;;;8.15;72.88;99119.09;5104359;22;20060;-63
2024/01/23 09:55:18;;;;;;;1.75;1.30;;;;;;;8.27;72.70;99127.50;5087775;28;20017;-63
2024/01/23 09:57:44;;;;;;;3.05;2.75;;;;;;;8.23;71.89;99144.78;5087262;28;20028;-63
2024/01/23 10:00:11;;;;;;;9.45;3.55;;;;;;;8.25;71.70;99142.16;5087647;28;20024;-63
2024/01/23 10:02:46;;;;;;;1.05;0.75;;;;;;;8.26;71.79;99143.88;5086665;28;20025;-63
2024/01/23 10:05:14;;;;;;;2.40;1.23;;;;;;;8.44;71.92;99153.00;5087601;28;20085;-63
2024/01/23 10:07:40;;;;;;;2.45;1.00;;;;;;;8.65;72.55;99167.28;5087354;28;20095;-63
2024/01/23 10:12:35;;;;;;;9.18;2.17;;;;;;;9.30;70.78;99177.09;5129733;23;20043;-64
2024/01/23 10:15:00;;;;;;;7.00;2.15;;;;;;;9.51;68.79;99174.91;5127479;28;20223;-64
2024/01/23 10:17:25;;;;;;;8.15;2.50;;;;;;;9.48;67.36;99187.94;5127819;28;20027;-64
2024/01/23 10:19:51;;;;;;;4.10;2.00;;;;;;;9.70;68.68;99195.19;5127874;28;20094;-64
2024/01/23 10:22:18;;;;;;;3.22;2.25;;;;;;;9.94;65.61;99205.81;5120688;23;20059;-64
2024/01/23 10:24:43;;;;;;;5.10;2.58;;;;;;;9.92;66.10;99208.47;5107714;28;20380;-64
2024/01/23 10:27:08;;;;;;;7.97;1.23;;;;;;;9.88;66.34;99217.22;5109285;22;20235;-64
2024/01/23 10:29:34;;;;;;;11.40;1.98;;;;;;;9.87;66.32;99226.72;5106983;28;20050;-64
2024/01/23 10:32:00;;;;;;;2.50;1.65;;;;;;;9.91;65.13;99238.75;5107239;28;20027;-63
2024/01/23 10:34:26;;;;;;;1.40;1.02;;;;;;;9.75;66.49;99240.84;5107035;28;20020;-64
2024/01/23 10:36:55;;;;;;;2.67;1.45;;;;;;;9.63;66.98;99244.56;5105679;28;20028;-64
2024/01/23 10:39:22;;;;;;;4.95;1.50;;;;;;;9.18;67.90;99254.19;5105639;28;20027;-64
2024/01/23 10:41:50;;;;;;;3.78;1.75;;;;;;;8.74;67.79;99205.03;5107107;28;20036;-63
2024/01/23 10:44:16;;;;;;;3.30;1.13;;;;;;;8.41;68.14;99244.44;5105903;28;20016;-63
2024/01/23 10:46:43;;;;;;;1.65;1.05;;;;;;;8.09;67.88;99248.44;5107050;28;20020;-63
2024/01/23 10:49:08;;;;;;;14.80;2.40;;;;;;;8.16;68.52;99234.53;5106955;28;20301;-64
2024/01/23 10:51:36;;;;;;;0.70;0.63;;;;;;;7.96;69.73;99263.31;5106829;28;20031;-63
2024/01/23 10:54:12;;;;;;;33.42;2.22;;;;;;;7.81;69.41;99282.50;5106752;28;20027;-62
2024/01/23 10:56:42;;;;;;;2.50;1.63;;;;;;;7.60;68.56;99281.94;5106793;28;20111;-63
2024/01/23 10:59:15;;;;;;;0.77;0.70;;;;;;;7.52;70.53;99283.78;5106395;28;20092;-63
2024/01/23 11:01:43;;;;;;;4.00;1.42;;;;;;;7.38;70.86;99302.03;5105299;28;20030;-63
2024/01/23 11:04:09;;;;;;;3.50;1.27;;;;;;;7.25;70.55;99288.44;5106556;28;20043;-63
2024/01/23 11:06:39;;;;;;;1.85;0.73;;;;;;;7.15;69.33;99298.00;5106455;28;20039;-63
2024/01/23 11:09:14;;;;;;;5.57;0.73;;;;;;;7.14;69.69;99307.47;5106695;28;20020;-64
2024/01/23 11:11:58;;;;;;;9.73;2.70;;;;;;;7.25;71.04;99332.31;5106495;28;20020;-63
2024/01/23 11:14:27;;;;;;;1.52;1.05;;;;;;;7.58;70.15;99343.09;5105586;28;20084;-63
2024/01/23 11:17:06;;;;;;;12.90;2.95;;;;;;;7.88;68.81;99340.09;5105013;28;20024;-64
2024/01/23 11:19:43;;;;;;;5.15;1.40;;;;;;;8.33;68.39;99346.31;5106336;28;20023;-63
2024/01/23 11:22:09;;;;;;;3.00;2.13;;;;;;;8.78;68.09;99355.94;5106421;28;20055;-62
2024/01/23 11:24:42;;;;;;;0.73;0.70;;;;;;;9.33;65.78;99363.53;5106073;28;20024;-64
2024/01/23 11:27:08;;;;;;;13.13;1.65;;;;;;;9.61;64.57;99362.97;5105911;28;20040;-64
2024/01/23 11:29:34;;;;;;;1.27;1.27;;;;;;;10.07;62.74;99378.38;5106197;28;20095;-63
2024/01/23 11:31:59;;;;;;;5.25;2.55;;;;;;;10.37;61.74;99383.72;5106106;28;20079;-64
2024/01/23 11:34:27;;;;;;;7.32;1.88;;;;;;;10.73;61.08;99397.63;5106343;28;20023;-64
2024/01/23 11:36:53;;;;;;;17.58;2.72;;;;;;;11.00;61.30;99390.00;5105983;28;20039;-63